createdAt,value
2019-03-23T00:01:00.482Z,5.41
2019-03-23T00:03:28.391Z,5.14
2019-03-23T00:05:56.256Z,4.98
2019-03-23T00:08:24.139Z,4.86
2019-03-23T00:10:52.117Z,4.87
2019-03-23T00:13:20.079Z,4.99
2019-03-23T00:15:47.999Z,5.28
2019-03-23T00:18:15.799Z,5.27
2019-03-23T00:20:43.691Z,5.16
2019-03-23T00:23:11.585Z,4.98
2019-03-23T00:25:39.459Z,4.88
2019-03-23T00:28:07.281Z,4.86
2019-03-23T00:30:35.179Z,4.88
2019-03-23T00:33:03.068Z,4.87
2019-03-23T00:35:30.945Z,5.00
2019-03-23T00:37:58.858Z,5.20
2019-03-23T00:40:26.813Z,5.00
2019-03-23T00:42:54.686Z,4.84
2019-03-23T00:45:22.544Z,5.04
2019-03-23T00:47:50.428Z,4.99
2019-03-23T00:50:18.301Z,4.46
2019-03-23T00:52:46.242Z,4.32
2019-03-23T00:55:14.105Z,4.87
2019-03-23T00:57:42.029Z,5.06
2019-03-23T01:00:10.526Z,5.04
2019-03-23T01:02:38.520Z,4.70
2019-03-23T01:05:07.491Z,4.33
2019-03-23T01:07:35.364Z,3.88
2019-03-23T01:10:04.184Z,4.44
2019-03-23T01:12:32.030Z,4.56
2019-03-23T01:15:00.006Z,4.29
2019-03-23T01:17:27.880Z,4.12
2019-03-23T01:19:55.719Z,4.12
2019-03-23T01:22:23.607Z,4.67
2019-03-23T01:24:51.485Z,4.57
2019-03-23T01:27:19.391Z,4.65
2019-03-23T01:29:47.254Z,4.28
2019-03-23T01:32:15.139Z,3.81
2019-03-23T01:34:42.980Z,3.76
2019-03-23T01:37:10.860Z,3.77
2019-03-23T01:39:38.727Z,4.09
2019-03-23T01:42:06.599Z,4.14
2019-03-23T01:44:34.511Z,3.53
2019-03-23T01:47:02.380Z,3.70
2019-03-23T01:49:30.239Z,4.04
2019-03-23T01:51:58.083Z,4.00
2019-03-23T01:54:25.941Z,3.72
2019-03-23T01:56:53.862Z,3.66
2019-03-23T01:59:21.733Z,3.21
2019-03-23T02:01:49.594Z,3.27
2019-03-23T02:04:17.521Z,3.38
2019-03-23T02:06:45.807Z,3.43
2019-03-23T02:09:13.774Z,3.29
2019-03-23T02:11:41.702Z,3.41
2019-03-23T02:14:09.599Z,3.51
2019-03-23T02:16:37.475Z,3.63
2019-03-23T02:19:05.842Z,3.90
2019-03-23T02:21:33.759Z,4.18
2019-03-23T02:24:01.622Z,3.87
2019-03-23T02:26:29.531Z,3.87
2019-03-23T02:28:57.431Z,4.05
2019-03-23T02:31:25.360Z,3.93
2019-03-23T02:33:53.248Z,3.69
2019-03-23T02:36:21.150Z,3.66
2019-03-23T02:38:49.005Z,3.65
2019-03-23T02:41:16.908Z,3.57
2019-03-23T02:43:44.785Z,3.30
2019-03-23T02:46:12.658Z,3.04
2019-03-23T02:48:40.560Z,3.03
2019-03-23T02:51:08.448Z,3.03
2019-03-23T02:53:36.327Z,3.37
2019-03-23T02:56:04.188Z,3.71
2019-03-23T02:58:32.082Z,3.10
2019-03-23T03:01:00.340Z,2.98
2019-03-23T03:03:28.236Z,3.70
2019-03-23T03:05:56.062Z,4.01
2019-03-23T03:08:24.013Z,3.12
2019-03-23T03:10:51.869Z,3.41
2019-03-23T03:13:19.699Z,3.48
2019-03-23T03:15:47.633Z,3.44
2019-03-23T03:18:15.568Z,3.02
2019-03-23T03:20:43.512Z,2.38
2019-03-23T03:23:11.502Z,3.32
2019-03-23T03:25:39.349Z,3.32
2019-03-23T03:28:07.143Z,3.28
2019-03-23T03:30:35.224Z,3.28
2019-03-23T03:33:03.129Z,3.30
2019-03-23T03:35:30.944Z,3.13
2019-03-23T03:37:58.872Z,2.99
2019-03-23T03:40:26.780Z,2.98
2019-03-23T03:42:54.629Z,2.69
2019-03-23T03:45:24.494Z,2.78
2019-03-23T03:47:54.682Z,3.06
2019-03-23T03:50:22.604Z,2.72
2019-03-23T03:52:50.500Z,3.23
2019-03-23T03:55:18.384Z,2.93
2019-03-23T03:57:46.264Z,2.53
2019-03-23T04:00:14.242Z,2.64
2019-03-23T04:02:42.101Z,3.06
2019-03-23T04:05:10.066Z,3.35
2019-03-23T04:07:37.930Z,3.58
2019-03-23T04:10:06.030Z,3.10
2019-03-23T04:12:33.940Z,2.74
2019-03-23T04:15:01.811Z,3.10
2019-03-23T04:17:29.659Z,3.36
2019-03-23T04:19:57.588Z,3.34
2019-03-23T04:22:25.390Z,3.24
2019-03-23T04:24:53.261Z,2.61
2019-03-23T04:27:21.141Z,2.95
2019-03-23T04:29:49.007Z,2.24
2019-03-23T04:32:16.942Z,2.12
2019-03-23T04:34:44.900Z,2.30
2019-03-23T04:37:13.042Z,1.92
2019-03-23T04:39:40.944Z,2.85
2019-03-23T04:42:08.799Z,2.93
2019-03-23T04:44:36.660Z,2.25
2019-03-23T04:47:04.597Z,2.63
2019-03-23T04:49:32.482Z,2.26
2019-03-23T04:52:00.359Z,2.16
2019-03-23T04:54:28.201Z,2.21
2019-03-23T04:56:56.087Z,2.82
2019-03-23T04:59:24.780Z,2.45
2019-03-23T05:01:53.711Z,2.03
2019-03-23T05:04:22.069Z,2.76
2019-03-23T05:06:49.945Z,2.86
2019-03-23T05:09:17.799Z,2.04
2019-03-23T05:11:45.709Z,2.48
2019-03-23T05:14:13.560Z,2.34
2019-03-23T05:16:41.439Z,2.46
2019-03-23T05:19:09.279Z,2.90
2019-03-23T05:21:37.194Z,2.53
2019-03-23T05:24:05.082Z,2.45
2019-03-23T05:26:32.934Z,2.62
2019-03-23T05:29:00.840Z,2.78
2019-03-23T05:31:28.699Z,2.82
2019-03-23T05:33:56.620Z,2.95
2019-03-23T05:36:24.535Z,2.52
2019-03-23T05:38:52.425Z,2.32
2019-03-23T05:41:20.322Z,1.87
2019-03-23T05:43:48.202Z,2.05
2019-03-23T05:46:16.681Z,2.46
2019-03-23T05:48:44.544Z,2.05
2019-03-23T05:51:12.439Z,2.39
2019-03-23T05:53:40.261Z,2.10
2019-03-23T05:56:08.122Z,2.55
2019-03-23T05:58:35.959Z,2.30
2019-03-23T06:01:03.811Z,2.56
2019-03-23T06:03:31.741Z,2.92
2019-03-23T06:05:59.622Z,2.86
2019-03-23T06:08:27.461Z,2.60
2019-03-23T06:10:55.360Z,2.09
2019-03-23T06:13:23.279Z,2.60
2019-03-23T06:15:51.099Z,1.92
2019-03-23T06:18:18.974Z,2.58
2019-03-23T06:20:46.951Z,2.39
2019-03-23T06:23:15.880Z,2.55
2019-03-23T06:25:43.785Z,2.88
2019-03-23T06:28:11.691Z,2.71
2019-03-23T06:30:39.583Z,2.50
2019-03-23T06:33:07.459Z,2.64
2019-03-23T06:35:35.380Z,2.73
2019-03-23T06:38:04.055Z,2.61
2019-03-23T06:40:31.873Z,2.90
2019-03-23T06:43:00.155Z,2.88
2019-03-23T06:45:28.657Z,2.94
2019-03-23T06:47:56.787Z,2.92
2019-03-23T06:50:24.831Z,2.76
2019-03-23T06:52:53.069Z,2.54
2019-03-23T06:55:20.931Z,2.63
2019-03-23T06:57:48.774Z,2.71
2019-03-23T07:00:16.760Z,2.96
2019-03-23T07:02:44.662Z,2.44
2019-03-23T07:05:13.055Z,2.46
2019-03-23T07:07:41.137Z,2.32
2019-03-23T07:10:10.856Z,2.14
2019-03-23T07:12:38.838Z,2.54
2019-03-23T07:15:07.873Z,2.74
2019-03-23T07:17:35.806Z,2.32
2019-03-23T07:20:04.986Z,2.82
2019-03-23T07:22:32.889Z,2.83
2019-03-23T07:25:00.966Z,2.46
2019-03-23T07:27:29.240Z,2.78
2019-03-23T07:29:57.119Z,2.73
2019-03-23T07:32:25.028Z,2.79
2019-03-23T07:34:52.970Z,2.71
2019-03-23T07:37:20.922Z,3.00
2019-03-23T07:39:48.810Z,2.81
2019-03-23T07:42:16.994Z,3.31
2019-03-23T07:44:46.717Z,3.46
2019-03-23T07:47:14.716Z,3.60
2019-03-23T07:49:43.642Z,3.42
2019-03-23T07:52:11.559Z,3.73
2019-03-23T07:54:39.461Z,4.09
2019-03-23T07:57:07.399Z,4.12
2019-03-23T07:59:35.354Z,4.22
2019-03-23T08:02:03.280Z,4.30
2019-03-23T08:04:31.196Z,4.57
2019-03-23T08:06:59.122Z,4.70
2019-03-23T08:09:37.082Z,4.87
2019-03-23T08:11:56.780Z,4.98
2019-03-23T08:14:24.690Z,5.06
2019-03-23T08:16:52.546Z,5.25
2019-03-23T08:19:20.456Z,5.50
2019-03-23T08:21:48.342Z,5.54
2019-03-23T08:24:16.325Z,5.50
2019-03-23T08:26:44.204Z,5.49
2019-03-23T08:29:12.028Z,5.78
2019-03-23T08:31:39.945Z,6.01
2019-03-23T08:34:07.836Z,5.94
2019-03-23T08:36:35.841Z,6.00
2019-03-23T08:39:05.125Z,6.24
2019-03-23T08:41:33.022Z,6.71
2019-03-23T08:44:00.887Z,6.44
2019-03-23T08:46:28.837Z,6.84
2019-03-23T08:48:56.743Z,7.28
2019-03-23T08:51:24.590Z,7.41
2019-03-23T08:53:52.541Z,7.35
2019-03-23T08:56:20.436Z,7.83
2019-03-23T08:58:46.646Z,7.81
2019-03-23T09:01:14.541Z,7.79
2019-03-23T09:03:52.070Z,8.21
2019-03-23T09:06:12.196Z,8.28
2019-03-23T09:08:40.153Z,8.57
2019-03-23T09:11:08.041Z,8.48
2019-03-23T09:13:40.665Z,8.55
2019-03-23T09:16:05.823Z,8.77
2019-03-23T09:18:33.781Z,9.29
2019-03-23T09:21:01.847Z,9.05
2019-03-23T09:23:29.833Z,9.55
2019-03-23T09:25:58.282Z,9.40
2019-03-23T09:28:26.227Z,9.76
2019-03-23T09:30:54.328Z,9.56
2019-03-23T09:33:22.271Z,9.97
2019-03-23T09:35:50.357Z,10.57
2019-03-23T09:38:18.278Z,10.51
2019-03-23T09:40:46.231Z,10.27
2019-03-23T09:43:14.206Z,10.16
2019-03-23T09:45:42.217Z,10.63
2019-03-23T09:48:10.239Z,10.81
2019-03-23T09:50:38.277Z,11.05
2019-03-23T09:53:06.267Z,10.84
2019-03-23T09:55:34.234Z,10.95
2019-03-23T09:58:02.214Z,11.17
2019-03-23T10:00:32.341Z,11.27
2019-03-23T10:03:00.311Z,11.44
2019-03-23T10:05:28.269Z,11.42
2019-03-23T10:07:56.196Z,11.52
2019-03-23T10:10:24.176Z,11.59
2019-03-23T10:12:52.122Z,11.94
2019-03-23T10:15:20.381Z,11.78
2019-03-23T10:17:48.368Z,12.01
2019-03-23T10:20:16.371Z,11.76
2019-03-23T10:22:44.513Z,12.12
2019-03-23T10:25:12.475Z,12.46
2019-03-23T10:27:40.626Z,12.40
2019-03-23T10:30:08.736Z,12.91
2019-03-23T10:32:36.621Z,12.41
2019-03-23T10:35:06.442Z,12.78
2019-03-23T10:37:34.331Z,12.92
2019-03-23T10:40:02.203Z,12.99
2019-03-23T10:42:30.375Z,13.11
2019-03-23T10:44:58.263Z,13.14
2019-03-23T10:47:27.295Z,13.60
2019-03-23T10:49:55.152Z,13.09
2019-03-23T10:52:23.010Z,13.33
2019-03-23T10:54:56.417Z,13.43
2019-03-23T10:57:24.311Z,13.88
2019-03-23T10:59:52.272Z,14.16
2019-03-23T11:02:20.198Z,13.90
2019-03-23T11:04:48.101Z,14.34
2019-03-23T11:07:16.091Z,14.55
2019-03-23T11:09:44.027Z,14.26
2019-03-23T11:12:11.886Z,14.19
2019-03-23T11:14:39.842Z,14.11
2019-03-23T11:17:07.719Z,14.55
2019-03-23T11:19:35.569Z,14.54
2019-03-23T11:22:03.499Z,14.72
2019-03-23T11:24:31.359Z,14.91
2019-03-23T11:26:59.259Z,15.10
2019-03-23T11:29:27.150Z,15.08
2019-03-23T11:31:54.999Z,15.36
2019-03-23T11:34:23.061Z,15.32
2019-03-23T11:36:50.979Z,15.46
2019-03-23T11:39:18.847Z,15.40
2019-03-23T11:41:46.779Z,15.81
2019-03-23T11:44:14.702Z,16.06
2019-03-23T11:46:42.635Z,16.05
2019-03-23T11:49:10.618Z,15.88
2019-03-23T11:51:38.467Z,16.19
2019-03-23T11:54:06.399Z,15.94
2019-03-23T11:56:34.337Z,16.07
2019-03-23T11:59:02.235Z,15.91
2019-03-23T12:01:31.079Z,16.02
2019-03-23T12:03:58.982Z,15.94
2019-03-23T12:06:26.838Z,16.13
2019-03-23T12:08:55.506Z,16.57
2019-03-23T12:11:23.402Z,16.41
2019-03-23T12:13:51.331Z,16.90
2019-03-23T12:16:19.261Z,16.36
2019-03-23T12:18:47.143Z,16.57
2019-03-23T12:21:15.061Z,16.53
2019-03-23T12:23:42.925Z,16.76
2019-03-23T12:26:10.806Z,16.87
2019-03-23T12:28:38.653Z,16.97
2019-03-23T12:31:06.557Z,17.19
2019-03-23T12:33:34.522Z,17.00
2019-03-23T12:36:02.407Z,17.30
2019-03-23T12:38:30.302Z,17.30
2019-03-23T12:40:58.260Z,17.29
2019-03-23T12:43:26.257Z,17.22
2019-03-23T12:45:54.161Z,17.44
2019-03-23T12:48:22.100Z,17.64
2019-03-23T12:50:49.944Z,17.56
2019-03-23T12:53:17.827Z,17.43
2019-03-23T12:55:45.700Z,17.48
2019-03-23T12:58:13.560Z,17.42
2019-03-23T13:00:41.441Z,17.73
2019-03-23T13:03:09.367Z,17.55
2019-03-23T13:05:37.286Z,17.58
2019-03-23T13:08:05.319Z,17.76
2019-03-23T13:10:33.337Z,17.71
2019-03-23T13:13:01.265Z,17.82
2019-03-23T13:15:29.187Z,17.90
2019-03-23T13:17:57.106Z,18.18
2019-03-23T13:20:25.033Z,18.30
2019-03-23T13:22:53.063Z,18.32
2019-03-23T13:25:20.996Z,18.46
2019-03-23T13:27:48.882Z,18.52
2019-03-23T13:30:16.887Z,18.67
2019-03-23T13:32:44.742Z,18.35
2019-03-23T13:35:12.603Z,18.48
2019-03-23T13:37:40.479Z,18.91
2019-03-23T13:40:08.922Z,18.83
2019-03-23T13:42:36.794Z,18.64
2019-03-23T13:45:06.126Z,18.83
2019-03-23T13:47:34.064Z,18.79
2019-03-23T13:50:01.894Z,18.87
2019-03-23T13:52:29.802Z,19.14
2019-03-23T13:54:57.801Z,19.18
2019-03-23T13:57:25.690Z,19.13
2019-03-23T13:59:53.566Z,19.13
2019-03-23T14:02:21.526Z,18.99
2019-03-23T14:04:50.357Z,19.25
2019-03-23T14:07:18.401Z,19.21
2019-03-23T14:09:46.947Z,19.22
2019-03-23T14:12:14.853Z,19.03
2019-03-23T14:14:42.733Z,19.01
2019-03-23T14:17:10.679Z,19.03
2019-03-23T14:19:38.560Z,19.06
2019-03-23T14:22:06.441Z,19.16
2019-03-23T14:24:34.361Z,19.20
2019-03-23T14:27:02.220Z,19.20
2019-03-23T14:29:30.136Z,19.28
2019-03-23T14:31:58.096Z,19.54
2019-03-23T14:34:25.982Z,19.52
2019-03-23T14:36:53.978Z,19.33
2019-03-23T14:39:21.902Z,19.13
2019-03-23T14:41:49.758Z,19.29
2019-03-23T14:44:17.608Z,19.39
2019-03-23T14:46:45.525Z,19.54
2019-03-23T14:49:13.419Z,19.37
2019-03-23T14:51:41.231Z,19.34
2019-03-23T14:54:09.179Z,19.62
2019-03-23T14:56:37.104Z,19.65
2019-03-23T14:59:05.004Z,19.64
2019-03-23T15:01:32.917Z,19.81
2019-03-23T15:04:00.781Z,19.72
2019-03-23T15:06:28.641Z,19.57
2019-03-23T15:08:56.564Z,19.63
2019-03-23T15:11:24.460Z,19.47
2019-03-23T15:13:52.339Z,20.02
2019-03-23T15:16:20.605Z,19.55
2019-03-23T15:18:48.522Z,19.78
2019-03-23T15:21:16.419Z,19.30
2019-03-23T15:23:44.466Z,20.54
2019-03-23T15:26:12.562Z,19.62
2019-03-23T15:28:43.046Z,19.60
2019-03-23T15:31:10.935Z,19.86
2019-03-23T15:33:38.898Z,20.10
2019-03-23T15:36:06.782Z,20.22
2019-03-23T15:38:34.702Z,19.59
2019-03-23T15:41:04.335Z,19.76
2019-03-23T15:43:32.248Z,19.59
2019-03-23T15:46:00.321Z,19.25
2019-03-23T15:48:28.783Z,19.28
2019-03-23T15:50:56.874Z,20.18
2019-03-23T15:53:24.891Z,19.57
2019-03-23T15:55:53.288Z,18.51
2019-03-23T15:58:21.129Z,20.64
2019-03-23T16:00:49.993Z,18.40
2019-03-23T16:03:17.888Z,19.10
2019-03-23T16:05:45.845Z,19.16
2019-03-23T16:08:13.973Z,19.17
2019-03-23T16:10:41.904Z,18.97
2019-03-23T16:13:09.917Z,19.25
2019-03-23T16:15:37.899Z,18.90
2019-03-23T16:18:05.862Z,18.92
2019-03-23T16:20:34.069Z,18.06
2019-03-23T16:23:02.111Z,18.78
2019-03-23T16:25:30.049Z,19.05
2019-03-23T16:27:58.072Z,18.60
2019-03-23T16:30:30.909Z,18.14
2019-03-23T16:32:58.911Z,18.79
2019-03-23T16:35:26.865Z,17.12
2019-03-23T16:37:54.984Z,16.75
2019-03-23T16:40:23.133Z,16.07
2019-03-23T16:42:51.264Z,15.75
2019-03-23T16:45:19.594Z,15.19
2019-03-23T16:47:49.963Z,15.03
2019-03-23T16:50:18.093Z,14.96
2019-03-23T16:52:46.262Z,14.64
2019-03-23T16:55:14.491Z,14.30
2019-03-23T16:57:42.789Z,14.97
2019-03-23T17:00:12.857Z,15.16
2019-03-23T17:02:41.108Z,14.96
2019-03-23T17:05:09.482Z,14.84
2019-03-23T17:07:37.720Z,14.60
2019-03-23T17:10:06.965Z,14.37
2019-03-23T17:12:35.349Z,14.29
2019-03-23T17:15:04.081Z,14.65
2019-03-23T17:17:32.400Z,13.78
2019-03-23T17:20:00.692Z,14.38
2019-03-23T17:22:28.960Z,14.16
2019-03-23T17:24:57.234Z,14.10
2019-03-23T17:27:25.359Z,14.08
2019-03-23T17:29:53.602Z,13.88
2019-03-23T17:32:21.972Z,13.52
2019-03-23T17:34:50.319Z,13.24
2019-03-23T17:37:18.636Z,13.54
2019-03-23T17:39:46.966Z,13.56
2019-03-23T17:42:15.357Z,13.09
2019-03-23T17:44:43.559Z,13.32
2019-03-23T17:47:11.987Z,12.68
2019-03-23T17:49:40.307Z,12.88
2019-03-23T17:52:08.642Z,12.68
2019-03-23T17:54:36.878Z,12.42
2019-03-23T17:57:05.320Z,13.13
2019-03-23T17:59:33.631Z,12.89
2019-03-23T18:02:01.974Z,12.86
2019-03-23T18:04:30.350Z,12.56
2019-03-23T18:06:58.683Z,12.59
2019-03-23T18:09:26.971Z,12.34
2019-03-23T18:11:55.271Z,12.25
2019-03-23T18:14:24.177Z,12.27
2019-03-23T18:16:52.313Z,12.12
2019-03-23T18:19:20.605Z,11.72
2019-03-23T18:21:48.897Z,11.65
2019-03-23T18:24:17.886Z,12.09
2019-03-23T18:26:46.187Z,11.97
2019-03-23T18:29:14.652Z,11.51
2019-03-23T18:31:42.894Z,11.59
2019-03-23T18:34:11.131Z,11.10
2019-03-23T18:36:39.815Z,11.13
2019-03-23T18:39:08.224Z,11.49
2019-03-23T18:41:36.554Z,11.11
2019-03-23T18:44:15.600Z,11.24
2019-03-23T18:46:35.390Z,11.27
2019-03-23T18:49:03.800Z,11.08
2019-03-23T18:51:32.183Z,10.79
2019-03-23T18:54:00.531Z,11.07
2019-03-23T18:56:29.141Z,11.01
2019-03-23T18:58:57.676Z,10.68
2019-03-23T19:01:26.490Z,10.52
2019-03-23T19:03:55.388Z,10.21
2019-03-23T19:06:23.652Z,10.52
2019-03-23T19:08:52.095Z,10.71
2019-03-23T19:11:21.909Z,10.23
2019-03-23T19:13:50.283Z,9.89
2019-03-23T19:16:19.056Z,9.92
2019-03-23T19:18:49.217Z,9.92
2019-03-23T19:21:17.496Z,10.38
2019-03-23T19:23:45.914Z,10.33
2019-03-23T19:26:14.323Z,10.13
2019-03-23T19:28:42.804Z,10.13
2019-03-23T19:31:10.989Z,9.80
2019-03-23T19:33:39.362Z,9.82
2019-03-23T19:36:07.901Z,9.94
2019-03-23T19:38:36.226Z,10.07
2019-03-23T19:41:05.689Z,9.85
2019-03-23T19:43:34.166Z,9.87
2019-03-23T19:46:03.071Z,9.89
2019-03-23T19:48:31.587Z,9.84
2019-03-23T19:50:59.867Z,9.78
2019-03-23T19:53:28.035Z,9.64
2019-03-23T19:55:56.585Z,9.58
2019-03-23T19:58:24.971Z,9.55
2019-03-23T20:00:53.409Z,9.44
2019-03-23T20:03:21.643Z,9.48
2019-03-23T20:05:50.043Z,9.29
2019-03-23T20:08:18.667Z,9.08
2019-03-23T20:10:46.981Z,9.21
2019-03-23T20:13:15.319Z,9.20
2019-03-23T20:15:44.026Z,9.13
2019-03-23T20:18:12.427Z,9.37
2019-03-23T20:20:40.809Z,9.47
2019-03-23T20:23:09.285Z,9.63
2019-03-23T20:25:39.697Z,9.00
2019-03-23T20:28:07.963Z,8.96
2019-03-23T20:30:37.079Z,8.68
2019-03-23T20:33:05.711Z,8.59
2019-03-23T20:35:34.011Z,8.66
2019-03-23T20:38:08.286Z,8.57
2019-03-23T20:40:38.351Z,8.64
2019-03-23T20:43:06.991Z,8.66
2019-03-23T20:45:36.561Z,8.82
2019-03-23T20:48:04.886Z,8.42
2019-03-23T20:50:33.309Z,8.22
2019-03-23T20:53:02.146Z,8.32
2019-03-23T20:55:31.528Z,8.44
2019-03-23T20:58:00.279Z,8.16
2019-03-23T21:00:29.016Z,8.23
2019-03-23T21:02:57.885Z,8.12
2019-03-23T21:05:33.917Z,8.07
2019-03-23T21:07:56.509Z,8.02
2019-03-23T21:10:24.924Z,7.92
2019-03-23T21:12:55.869Z,8.30
2019-03-23T21:15:24.153Z,8.46
2019-03-23T21:17:52.682Z,8.03
2019-03-23T21:20:21.228Z,8.22
2019-03-23T21:22:49.542Z,8.17
2019-03-23T21:25:17.897Z,7.83
2019-03-23T21:27:46.346Z,7.68
2019-03-23T21:30:15.419Z,7.77
2019-03-23T21:32:43.846Z,7.64
2019-03-23T21:35:12.263Z,7.69
2019-03-23T21:37:40.699Z,8.02
2019-03-23T21:40:09.210Z,7.91
2019-03-23T21:42:37.545Z,7.69
2019-03-23T21:45:06.322Z,7.83
2019-03-23T21:47:34.564Z,7.63
2019-03-23T21:50:02.703Z,7.78
2019-03-23T21:52:31.042Z,7.50
2019-03-23T21:54:59.168Z,7.79
2019-03-23T21:57:27.271Z,7.72
2019-03-23T21:59:56.262Z,7.43
2019-03-23T22:02:24.379Z,7.71
2019-03-23T22:04:52.357Z,7.85
2019-03-23T22:07:20.392Z,7.63
2019-03-23T22:09:48.403Z,7.46
2019-03-23T22:12:16.343Z,7.66
2019-03-23T22:14:44.324Z,7.56
2019-03-23T22:17:12.415Z,7.70
2019-03-23T22:19:40.366Z,7.48
2019-03-23T22:22:08.343Z,7.43
2019-03-23T22:24:36.362Z,7.27
2019-03-23T22:27:04.264Z,7.29
2019-03-23T22:29:32.146Z,7.29
2019-03-23T22:32:00.129Z,7.50
2019-03-23T22:34:27.993Z,7.17
2019-03-23T22:36:55.881Z,7.25
2019-03-23T22:39:23.825Z,7.39
2019-03-23T22:41:51.726Z,7.26
2019-03-23T22:44:19.601Z,7.28
2019-03-23T22:46:47.534Z,7.29
2019-03-23T22:49:15.486Z,6.95
2019-03-23T22:51:43.400Z,7.02
2019-03-23T22:54:11.350Z,7.31
2019-03-23T22:56:39.301Z,6.79
2019-03-23T22:59:10.693Z,7.10
2019-03-23T23:01:39.057Z,6.87
2019-03-23T23:04:07.231Z,6.82
2019-03-23T23:06:35.458Z,6.65
2019-03-23T23:09:05.528Z,7.12
2019-03-23T23:11:33.421Z,6.98
2019-03-23T23:14:01.687Z,6.69
2019-03-23T23:16:29.599Z,6.75
2019-03-23T23:18:57.432Z,6.76
2019-03-23T23:21:25.386Z,6.75
2019-03-23T23:23:53.409Z,6.78
2019-03-23T23:26:21.259Z,6.42
2019-03-23T23:28:49.127Z,6.78
2019-03-23T23:31:17.016Z,6.57
2019-03-23T23:33:44.841Z,6.59
2019-03-23T23:36:12.701Z,6.29
2019-03-23T23:38:40.610Z,6.25
2019-03-23T23:41:08.490Z,6.30
2019-03-23T23:43:36.341Z,6.18
2019-03-23T23:46:04.279Z,6.17
2019-03-23T23:48:32.260Z,6.40
2019-03-23T23:51:00.139Z,6.79
2019-03-23T23:53:28.041Z,6.73
2019-03-23T23:55:55.959Z,6.50
2019-03-23T23:58:23.864Z,6.24
